createdAt,value
2023-04-01T00:01:27.045Z,15.23
2023-04-01T00:03:55.051Z,15.27
2023-04-01T00:06:21.746Z,15.22
2023-04-01T00:08:48.601Z,15.42
2023-04-01T00:11:16.853Z,15.20
2023-04-01T00:13:44.206Z,15.32
2023-04-01T00:16:21.198Z,15.19
2023-04-01T00:18:49.728Z,15.34
2023-04-01T00:21:16.879Z,15.32
2023-04-01T00:23:44.621Z,15.26
2023-04-01T00:26:12.969Z,15.24
2023-04-01T00:28:41.018Z,15.13
2023-04-01T00:31:09.968Z,15.03
2023-04-01T00:33:37.832Z,15.20
2023-04-01T00:36:23.034Z,15.15
2023-04-01T00:38:51.339Z,15.17
2023-04-01T00:41:19.255Z,15.14
2023-04-01T00:43:48.328Z,15.11
2023-04-01T00:46:15.944Z,15.06
2023-04-01T00:48:51.513Z,15.05
2023-04-01T00:51:24.120Z,15.07
2023-04-01T00:53:53.572Z,15.09
2023-04-01T00:56:29.266Z,14.95
2023-04-01T00:59:01.237Z,15.04
2023-04-01T01:01:31.292Z,14.96
2023-04-01T01:03:58.583Z,14.80
2023-04-01T01:06:47.349Z,14.93
2023-04-01T01:09:25.112Z,15.00
2023-04-01T01:12:00.813Z,14.98
2023-04-01T01:14:52.383Z,14.82
2023-04-01T01:17:37.358Z,14.92
2023-04-01T01:20:25.221Z,14.88
2023-04-01T01:23:30.703Z,14.85
2023-04-01T01:26:09.602Z,15.25
2023-04-01T01:28:38.937Z,14.91
2023-04-01T01:32:05.606Z,14.77
2023-04-01T01:35:09.635Z,15.08
2023-04-01T01:37:38.289Z,14.96
2023-04-01T01:40:10.949Z,15.00
2023-04-01T01:42:42.420Z,14.92
2023-04-01T01:45:11.616Z,15.09
2023-04-01T01:47:39.203Z,15.09
2023-04-01T01:50:09.034Z,14.87
2023-04-01T01:52:36.122Z,14.96
2023-04-01T01:55:04.047Z,15.05
2023-04-01T01:57:41.268Z,15.26
2023-04-01T02:00:15.687Z,14.90
2023-04-01T02:02:46.384Z,14.90
2023-04-01T02:05:19.714Z,14.74
2023-04-01T02:07:54.931Z,14.72
2023-04-01T02:10:26.068Z,14.68
2023-04-01T02:12:58.837Z,14.83
2023-04-01T02:15:28.216Z,14.91
2023-04-01T02:17:57.917Z,14.86
2023-04-01T02:20:25.495Z,14.79
2023-04-01T02:22:55.768Z,14.92
2023-04-01T02:25:29.495Z,14.86
2023-04-01T02:27:58.514Z,14.84
2023-04-01T02:30:28.003Z,14.94
2023-04-01T02:32:57.749Z,14.97
2023-04-01T02:35:25.865Z,14.90
2023-04-01T02:37:55.303Z,14.93
2023-04-01T02:40:22.347Z,15.04
2023-04-01T02:42:49.269Z,14.92
2023-04-01T02:45:16.188Z,14.77
2023-04-01T02:47:43.389Z,14.88
2023-04-01T02:50:10.957Z,14.70
2023-04-01T02:52:37.859Z,14.41
2023-04-01T02:55:05.607Z,14.58
2023-04-01T02:57:33.338Z,14.89
2023-04-01T02:59:59.985Z,14.60
2023-04-01T03:02:26.830Z,14.82
2023-04-01T03:04:53.594Z,14.69
2023-04-01T03:07:20.266Z,14.86
2023-04-01T03:09:46.891Z,14.37
2023-04-01T03:12:13.643Z,14.42
2023-04-01T03:14:49.538Z,14.07
2023-04-01T03:17:16.512Z,14.34
2023-04-01T03:19:43.265Z,14.66
2023-04-01T03:22:12.852Z,14.75
2023-04-01T03:24:39.548Z,14.48
2023-04-01T03:27:06.376Z,14.62
2023-04-01T03:29:33.060Z,14.79
2023-04-01T03:32:00.429Z,14.56
2023-04-01T03:34:27.156Z,14.43
2023-04-01T03:36:54.160Z,14.78
2023-04-01T03:39:20.865Z,15.00
2023-04-01T03:41:47.820Z,14.80
2023-04-01T03:44:14.561Z,14.82
2023-04-01T03:46:41.918Z,14.36
2023-04-01T03:49:12.812Z,14.75
2023-04-01T03:51:41.737Z,14.83
2023-04-01T03:54:09.229Z,14.01
2023-04-01T03:56:35.911Z,14.46
2023-04-01T03:59:05.255Z,14.57
2023-04-01T04:01:32.608Z,14.30
2023-04-01T04:04:00.233Z,14.61
2023-04-01T04:06:28.382Z,14.59
2023-04-01T04:08:55.039Z,14.95
2023-04-01T04:11:22.886Z,14.90
2023-04-01T04:13:53.199Z,14.90
2023-04-01T04:16:20.927Z,14.93
2023-04-01T04:18:54.266Z,14.98
2023-04-01T04:21:20.987Z,15.22
2023-04-01T04:23:47.608Z,15.02
2023-04-01T04:26:16.789Z,15.08
2023-04-01T04:28:49.101Z,15.07
2023-04-01T04:31:22.461Z,15.09
2023-04-01T04:33:51.129Z,15.23
2023-04-01T04:36:19.049Z,15.21
2023-04-01T04:38:47.307Z,14.81
2023-04-01T04:41:16.581Z,14.85
2023-04-01T04:43:58.700Z,14.91
2023-04-01T04:46:26.333Z,14.65
2023-04-01T04:49:04.118Z,14.46
2023-04-01T04:51:31.164Z,13.41
2023-04-01T04:53:57.803Z,13.36
2023-04-01T04:56:36.889Z,14.04
2023-04-01T04:59:07.448Z,14.03
2023-04-01T05:01:43.007Z,13.95
2023-04-01T05:04:09.775Z,13.79
2023-04-01T05:06:36.647Z,12.67
2023-04-01T05:09:03.910Z,13.21
2023-04-01T05:11:30.525Z,13.33
2023-04-01T05:13:57.422Z,12.88
2023-04-01T05:16:24.306Z,13.42
2023-04-01T05:18:51.015Z,12.63
2023-04-01T05:21:17.740Z,11.27
2023-04-01T05:23:45.096Z,12.01
2023-04-01T05:26:14.069Z,12.49
2023-04-01T05:28:41.000Z,12.95
2023-04-01T05:31:08.608Z,12.73
2023-04-01T05:33:38.353Z,12.28
2023-04-01T05:36:08.658Z,11.82
2023-04-01T05:38:35.677Z,12.24
2023-04-01T05:41:03.847Z,12.63
2023-04-01T05:43:32.815Z,12.17
2023-04-01T05:46:08.827Z,11.62
2023-04-01T05:48:48.528Z,12.41
2023-04-01T05:51:16.534Z,12.19
2023-04-01T05:53:43.724Z,11.51
2023-04-01T05:56:10.585Z,11.32
2023-04-01T05:58:40.950Z,11.94
2023-04-01T06:01:15.870Z,11.61
2023-04-01T06:03:44.368Z,11.32
2023-04-01T06:06:24.712Z,11.54
2023-04-01T06:08:53.154Z,11.10
2023-04-01T06:11:45.593Z,11.30
2023-04-01T06:14:46.302Z,10.98
2023-04-01T06:17:22.143Z,11.39
2023-04-01T06:19:56.356Z,11.72
2023-04-01T06:22:38.195Z,11.09
2023-04-01T06:25:38.099Z,10.73
2023-04-01T06:28:35.204Z,10.40
2023-04-01T06:31:25.211Z,11.01
2023-04-01T06:34:07.597Z,11.36
2023-04-01T06:37:06.799Z,10.61
2023-04-01T06:40:06.342Z,10.52
2023-04-01T06:42:55.089Z,10.30
2023-04-01T06:46:01.800Z,11.11
2023-04-01T06:49:24.111Z,10.24
2023-04-01T06:52:27.860Z,10.38
2023-04-01T06:55:46.990Z,10.36
2023-04-01T06:58:28.338Z,10.83
2023-04-01T07:00:59.644Z,11.47
2023-04-01T07:03:40.987Z,10.24
2023-04-01T07:06:37.327Z,10.88
2023-04-01T07:09:14.978Z,11.08
2023-04-01T07:12:16.517Z,10.99
2023-04-01T07:15:26.191Z,10.60
2023-04-01T07:17:58.040Z,11.26
2023-04-01T07:20:30.807Z,10.63
2023-04-01T07:23:01.710Z,10.42
2023-04-01T07:25:54.750Z,10.70
2023-04-01T07:28:44.574Z,10.72
2023-04-01T07:32:05.640Z,11.06
2023-04-01T07:34:40.332Z,10.91
2023-04-01T07:37:17.215Z,10.41
2023-04-01T07:39:53.488Z,10.37
2023-04-01T07:42:55.782Z,10.62
2023-04-01T07:45:39.778Z,10.64
2023-04-01T07:48:12.497Z,10.85
2023-04-01T07:51:06.141Z,11.08
2023-04-01T07:53:37.263Z,11.09
2023-04-01T07:56:07.449Z,11.27
2023-04-01T07:58:59.477Z,10.81
2023-04-01T08:02:14.135Z,11.01
2023-04-01T08:05:08.877Z,10.90
2023-04-01T08:08:14.251Z,10.35
2023-04-01T08:11:18.115Z,10.82
2023-04-01T08:14:03.246Z,11.02
2023-04-01T08:17:04.191Z,10.49
2023-04-01T08:20:22.765Z,9.72
2023-04-01T08:22:54.278Z,9.83
2023-04-01T08:25:32.381Z,10.57
2023-04-01T08:28:20.817Z,10.33
2023-04-01T08:30:56.903Z,10.46
2023-04-01T08:33:28.042Z,10.67
2023-04-01T08:36:11.491Z,10.14
2023-04-01T08:38:47.864Z,10.12
2023-04-01T08:42:16.286Z,10.11
2023-04-01T08:45:04.264Z,10.45
2023-04-01T08:48:09.486Z,10.32
2023-04-01T08:51:07.581Z,10.48
2023-04-01T08:53:36.747Z,10.13
2023-04-01T08:56:06.436Z,10.15
2023-04-01T08:59:07.004Z,10.42
2023-04-01T09:11:50.938Z,10.63
2023-04-01T09:19:33.707Z,10.82
2023-04-01T09:23:43.239Z,10.64
2023-04-01T09:45:12.510Z,10.91
2023-04-01T10:07:46.344Z,10.56
2023-04-01T10:11:20.840Z,10.16
2023-04-01T10:15:07.948Z,10.24
2023-04-01T10:26:09.362Z,10.67
2023-04-01T10:40:57.879Z,11.22
2023-04-01T10:45:07.000Z,10.79
2023-04-01T10:56:34.559Z,10.98
2023-04-01T10:59:55.607Z,10.63
2023-04-01T11:03:19.156Z,11.27
2023-04-01T11:06:19.693Z,10.89
2023-04-01T11:09:07.142Z,10.11
2023-04-01T11:11:46.188Z,10.33
2023-04-01T11:14:38.034Z,11.15
2023-04-01T11:17:41.198Z,10.14
2023-04-01T11:20:39.609Z,10.13
2023-04-01T11:23:23.605Z,10.58
2023-04-01T11:25:56.246Z,10.78
2023-04-01T11:28:44.683Z,11.25
2023-04-01T11:31:24.661Z,10.40
2023-04-01T11:34:17.770Z,10.26
2023-04-01T11:37:02.273Z,10.71
2023-04-01T11:39:38.905Z,10.98
2023-04-01T11:42:46.107Z,9.75
2023-04-01T11:46:01.879Z,10.50
2023-04-01T11:49:01.759Z,10.91
2023-04-01T11:52:00.615Z,10.06
2023-04-01T11:54:35.944Z,9.69
2023-04-01T11:57:24.631Z,10.96
2023-04-01T12:00:15.827Z,9.64
2023-04-01T12:03:11.897Z,10.23
2023-04-01T12:06:03.312Z,11.08
2023-04-01T12:08:46.461Z,10.02
2023-04-01T12:11:44.769Z,10.12
2023-04-01T12:14:33.667Z,10.35
2023-04-01T12:17:28.001Z,9.88
2023-04-01T12:19:57.431Z,10.46
2023-04-01T12:22:42.965Z,9.39
2023-04-01T12:25:24.166Z,9.52
2023-04-01T12:28:03.598Z,9.71
2023-04-01T12:30:36.289Z,10.03
2023-04-01T12:33:21.915Z,10.52
2023-04-01T12:36:09.840Z,10.91
2023-04-01T12:38:58.250Z,10.93
2023-04-01T12:41:30.736Z,10.07
2023-04-01T12:44:17.671Z,10.05
2023-04-01T12:46:44.237Z,10.56
2023-04-01T12:49:25.866Z,9.79
2023-04-01T12:52:04.764Z,9.13
2023-04-01T12:54:40.439Z,9.74
2023-04-01T12:57:35.398Z,10.65
2023-04-01T13:00:59.633Z,10.77
2023-04-01T13:03:38.305Z,10.19
2023-04-01T13:06:39.062Z,10.04
2023-04-01T13:09:17.840Z,9.90
2023-04-01T13:12:12.789Z,9.78
2023-04-01T13:15:12.216Z,9.98
2023-04-01T13:17:51.352Z,9.90
2023-04-01T13:20:52.226Z,9.66
2023-04-01T13:23:37.925Z,9.90
2023-04-01T13:26:14.900Z,10.52
2023-04-01T13:29:06.830Z,9.49
2023-04-01T13:31:58.390Z,9.67
2023-04-01T13:34:49.143Z,10.44
2023-04-01T13:37:37.868Z,10.41
2023-04-01T13:40:36.341Z,9.75
2023-04-01T13:43:17.716Z,9.20
2023-04-01T13:46:02.629Z,10.37
2023-04-01T13:48:41.354Z,10.00
2023-04-01T13:51:27.146Z,10.57
2023-04-01T13:54:15.256Z,9.98
2023-04-01T13:57:20.147Z,10.18
2023-04-01T14:00:04.335Z,9.45
2023-04-01T14:02:55.852Z,10.00
2023-04-01T14:05:43.323Z,9.65
2023-04-01T14:08:48.087Z,9.61
2023-04-01T14:11:22.878Z,10.23
2023-04-01T14:14:14.130Z,10.52
2023-04-01T14:17:01.032Z,9.91
2023-04-01T14:19:31.033Z,10.30
2023-04-01T14:22:22.706Z,9.97
2023-04-01T14:25:28.140Z,9.85
2023-04-01T14:28:22.460Z,9.97
2023-04-01T14:30:56.553Z,9.37
2023-04-01T14:33:46.431Z,9.72
2023-04-01T14:37:05.740Z,9.03
2023-04-01T14:39:56.466Z,9.77
2023-04-01T14:43:01.064Z,9.33
2023-04-01T14:45:50.913Z,9.07
2023-04-01T14:48:40.966Z,10.03
2023-04-01T14:51:19.854Z,9.25
2023-04-01T14:54:07.411Z,9.48
2023-04-01T14:57:00.565Z,9.67
2023-04-01T14:59:29.707Z,10.04
2023-04-01T15:02:03.059Z,9.68
2023-04-01T15:04:51.342Z,9.49
2023-04-01T15:07:55.897Z,9.69
2023-04-01T15:10:31.609Z,8.95
2023-04-01T15:13:19.195Z,9.04
2023-04-01T15:16:03.852Z,9.04
2023-04-01T15:18:45.484Z,9.81
2023-04-01T15:21:29.100Z,9.95
2023-04-01T15:24:06.244Z,10.18
2023-04-01T15:27:10.028Z,9.62
2023-04-01T15:30:02.171Z,8.77
2023-04-01T15:32:51.021Z,9.10
2023-04-01T15:35:36.298Z,9.28
2023-04-01T15:38:20.906Z,9.40
2023-04-01T15:41:04.941Z,9.05
2023-04-01T15:43:43.852Z,9.49
2023-04-01T15:46:32.739Z,9.39
2023-04-01T15:49:02.144Z,9.81
2023-04-01T15:51:37.586Z,9.33
2023-04-01T15:54:07.202Z,8.75
2023-04-01T15:57:15.775Z,9.41
2023-04-01T15:59:51.093Z,10.05
2023-04-01T16:02:42.781Z,9.84
2023-04-01T16:05:28.179Z,8.99
2023-04-01T16:08:33.096Z,8.98
2023-04-01T16:11:43.906Z,9.33
2023-04-01T16:14:16.511Z,8.96
2023-04-01T16:17:00.161Z,9.86
2023-04-01T16:19:36.316Z,9.47
2023-04-01T16:22:41.131Z,9.89
2023-04-01T16:25:30.260Z,9.34
2023-04-01T16:28:16.349Z,9.28
2023-04-01T16:31:11.091Z,9.33
2023-04-01T16:34:16.351Z,9.77
2023-04-01T16:36:49.144Z,8.46
2023-04-01T16:39:31.172Z,8.54
2023-04-01T16:42:04.593Z,9.38
2023-04-01T16:44:31.292Z,9.39
2023-04-01T16:47:14.002Z,11.55
2023-04-01T16:49:51.851Z,10.39
2023-04-01T16:52:32.190Z,9.13
2023-04-01T16:55:13.288Z,9.37
2023-04-01T16:57:57.292Z,9.50
2023-04-01T17:00:52.961Z,9.83
2023-04-01T17:03:34.518Z,9.00
2023-04-01T17:06:25.187Z,9.50
2023-04-01T17:09:01.284Z,8.84
2023-04-01T17:11:43.249Z,9.61
2023-04-01T17:14:33.970Z,8.59
2023-04-01T17:17:26.592Z,8.24
2023-04-01T17:20:21.344Z,8.61
2023-04-01T17:22:59.923Z,8.68
2023-04-01T17:25:33.312Z,8.85
2023-04-01T17:28:18.752Z,9.03
2023-04-01T17:31:14.586Z,9.20
2023-04-01T17:34:08.890Z,8.35
2023-04-01T17:36:56.697Z,9.31
2023-04-01T17:39:55.924Z,8.11
2023-04-01T17:42:41.690Z,8.73
2023-04-01T17:45:30.052Z,8.87
2023-04-01T17:48:11.611Z,9.30
2023-04-01T17:50:46.983Z,8.99
2023-04-01T17:54:06.230Z,9.65
2023-04-01T17:56:55.723Z,8.35
2023-04-01T17:59:34.565Z,9.15
2023-04-01T18:02:06.983Z,9.30
2023-04-01T18:04:51.986Z,8.15
2023-04-01T18:07:39.729Z,8.04
2023-04-01T18:10:12.192Z,9.27
2023-04-01T18:13:27.035Z,8.48
2023-04-01T18:16:20.989Z,8.87
2023-04-01T18:19:03.818Z,7.97
2023-04-01T18:21:30.443Z,8.63
2023-04-01T18:24:02.612Z,8.78
2023-04-01T18:26:35.222Z,8.40
2023-04-01T18:29:43.722Z,8.51
2023-04-01T18:32:25.784Z,8.05
2023-04-01T18:34:55.675Z,7.82
2023-04-01T18:37:32.565Z,7.98
2023-04-01T18:40:14.731Z,8.44
2023-04-01T18:42:56.877Z,8.22
2023-04-01T18:45:35.113Z,8.46
2023-04-01T18:48:24.004Z,7.90
2023-04-01T18:51:22.828Z,8.35
2023-04-01T18:54:01.470Z,8.37
2023-04-01T18:56:35.472Z,8.28
2023-04-01T18:59:04.939Z,8.24
2023-04-01T19:01:44.183Z,7.67
2023-04-01T19:04:22.075Z,8.34
2023-04-01T19:06:58.351Z,8.05
2023-04-01T19:09:43.637Z,8.24
2023-04-01T19:12:22.064Z,7.16
2023-04-01T19:15:09.967Z,8.37
2023-04-01T19:17:45.725Z,8.38
2023-04-01T19:20:30.579Z,8.05
2023-04-01T19:23:18.509Z,8.46
2023-04-01T19:25:52.105Z,8.40
2023-04-01T19:28:27.046Z,7.91
2023-04-01T19:31:25.988Z,7.85
2023-04-01T19:33:55.679Z,7.14
2023-04-01T19:36:40.942Z,7.57
2023-04-01T19:39:31.819Z,7.31
2023-04-01T19:42:20.654Z,7.94
2023-04-01T19:45:17.887Z,7.30
2023-04-01T19:48:13.381Z,7.17
2023-04-01T19:50:56.950Z,8.35
2023-04-01T19:53:41.460Z,8.41
2023-04-01T19:56:17.193Z,7.12
2023-04-01T19:58:55.971Z,7.56
2023-04-01T20:01:44.585Z,8.20
2023-04-01T20:04:29.003Z,7.57
2023-04-01T20:07:04.858Z,8.27
2023-04-01T20:09:52.763Z,8.07
2023-04-01T20:12:28.229Z,7.79
2023-04-01T20:14:58.470Z,7.36
2023-04-01T20:17:31.959Z,8.08
2023-04-01T20:20:16.205Z,8.08
2023-04-01T20:22:45.984Z,6.97
2023-04-01T20:25:31.777Z,7.15
2023-04-01T20:28:19.632Z,6.70
2023-04-01T20:31:06.557Z,6.90
2023-04-01T20:34:09.551Z,7.42
2023-04-01T20:37:14.325Z,6.79
2023-04-01T20:39:59.468Z,7.03
2023-04-01T20:42:47.065Z,7.03
2023-04-01T20:45:56.173Z,7.34
2023-04-01T20:49:03.660Z,6.50
2023-04-01T20:51:34.232Z,7.13
2023-04-01T20:54:43.644Z,6.85
2023-04-01T20:57:13.942Z,6.93
2023-04-01T21:00:16.914Z,6.97
2023-04-01T21:03:14.452Z,7.30
2023-04-01T21:06:00.646Z,7.34
2023-04-01T21:08:50.825Z,7.45
2023-04-01T21:11:32.546Z,7.19
2023-04-01T21:14:08.263Z,6.74
2023-04-01T21:16:59.745Z,6.88
2023-04-01T21:19:35.544Z,6.79
2023-04-01T21:22:17.572Z,7.42
2023-04-01T21:25:05.868Z,7.18
2023-04-01T21:28:10.232Z,7.10
2023-04-01T21:31:11.742Z,6.40
2023-04-01T21:34:08.392Z,6.54
2023-04-01T21:37:04.688Z,6.77
2023-04-01T21:40:02.870Z,6.12
2023-04-01T21:42:58.869Z,6.84
2023-04-01T21:45:34.705Z,6.68
2023-04-01T21:48:13.783Z,6.78
2023-04-01T21:50:46.465Z,6.74
2023-04-01T21:54:07.203Z,6.71
2023-04-01T21:57:04.270Z,6.98
2023-04-01T21:59:46.220Z,6.77
2023-04-01T22:02:47.120Z,6.50
2023-04-01T22:05:38.402Z,6.98
2023-04-01T22:08:07.835Z,6.68
2023-04-01T22:11:00.185Z,6.98
2023-04-01T22:13:40.678Z,7.49
2023-04-01T22:16:40.703Z,6.57
2023-04-01T22:19:20.891Z,6.30
2023-04-01T22:22:05.163Z,6.62
2023-04-01T22:24:43.066Z,6.70
2023-04-01T22:27:37.137Z,6.79
2023-04-01T22:30:25.540Z,6.36
2023-04-01T22:32:59.116Z,6.33
2023-04-01T22:35:45.511Z,6.61
2023-04-01T22:38:18.084Z,6.77
2023-04-01T22:40:58.245Z,6.43
2023-04-01T22:43:30.219Z,6.65
2023-04-01T22:46:27.642Z,6.59
2023-04-01T22:49:17.534Z,6.90
2023-04-01T22:51:54.461Z,6.72
2023-04-01T22:54:30.616Z,6.40
2023-04-01T22:57:03.622Z,6.76
2023-04-01T22:59:43.255Z,6.85
2023-04-01T23:02:19.067Z,6.09
2023-04-01T23:04:53.216Z,6.34
2023-04-01T23:07:34.058Z,6.57
2023-04-01T23:10:05.157Z,6.22
2023-04-01T23:12:34.355Z,5.86
2023-04-01T23:15:02.756Z,6.13
2023-04-01T23:17:43.126Z,6.97
2023-04-01T23:20:33.117Z,6.73
2023-04-01T23:23:25.087Z,6.90
2023-04-01T23:26:13.435Z,6.11
2023-04-01T23:28:45.244Z,6.13
2023-04-01T23:31:31.397Z,6.44
2023-04-01T23:34:16.800Z,6.88
2023-04-01T23:36:47.651Z,6.87
2023-04-01T23:39:40.982Z,6.50
2023-04-01T23:42:23.105Z,6.08
2023-04-01T23:44:52.488Z,5.78
2023-04-01T23:47:23.357Z,6.05
2023-04-01T23:50:04.761Z,6.48
2023-04-01T23:52:36.780Z,6.34
2023-04-01T23:55:33.013Z,6.85
2023-04-01T23:58:08.810Z,5.85
